OI42 weather

D. A. Chandler Airport
New London, Ohio, United States

Public forecast

Using degrees Fahrenheit for public forecast. Weather courtesy of forecast.io.

Closest aviation weather report (METAR) to D. A. Chandler Airport

Closest report is Lorain County Regional Airport, 18.0 nm (33.4 km) NE. Retrieved 2020/02/17 23:53 UTC (16 minutes ago):

KLPR 172353Z AUTO 06006KT 9SM OVC080 02/M03 A3011 RMK AO2 SLP204 T00221028 10067 20022 55007

Closest aviation forecast (TAF) to D. A. Chandler Airport

Closest forecast is Mansfield Lahm Regional Airport, 18.9 nm (34.9 km) S. Retrieved 2020-02-18 00:30 UTC (0 seconds ago):

TAF KMFD 172326Z 1800/1824 12008KT P6SM OVC080 TEMPO 1802/1804 4SM -RA BR OVC025 FM180600 16012KT 5SM RA BR OVC035 FM180900 18015G25KT 4SM RA BR OVC015 FM181200 21014KT P6SM OVC008 FM181400 24013KT P6SM OVC003